Delray Beach, FL

12:13 AM EST on February 10, 2016 (GMT -0500)
Delray Beach | | Change Station
CLOSE
Current Station
Personal Weather Station
Location: Delray Beach, FL
Elevation: 30 ft
Nearby Weather Stations

Elev 30 ft 26.47 °N, 80.09 °W | Updated 9 seconds ago

Partly Cloudy
Partly Cloudy
56.3 °F
Feels Like 56.3 °F
N
0.0
Wind Variable Wind from ESE
Gusts 1.7 mph

Today
High -- | Low -- °F
--% Chance of Precip.
Yesterday
High -- | Low -- °F
Precip. -- in
Pressure 30.10 in
Visibility 10.0 miles
Clouds Clear
Dew Point 51 °F
Humidity 82%
Rainfall 0.00 in
Snow Depth Not available.
7:00 AM 6:09 PM
Waxing Crescent, 3% visible
METAR KPMP 100453Z AUTO 26006KT 10SM CLR 15/11 A3009 RMK AO2 SLP192 T01500106 401830144
Pressure 30.10 in
Visibility 10.0 miles
Clouds Clear
Dew Point 51 °F
Humidity 82%
Rainfall 0.00 in
Snow Depth Not available.
7:00 AM 6:09 PM
Waxing Crescent, 3% visible
METAR KPMP 100453Z AUTO 26006KT 10SM CLR 15/11 A3009 RMK AO2 SLP192 T01500106 401830144

10-Day Weather Forecast

Almanac

Astronomy

Feb. 10, 2016 Rise Set
Actual Time
Civil Twilight
Nautical Twilight
Astronomical Twilight
Moon
Length of Visible Light
Length of Day
Tomorrow will be .
, % of the Moon is Illuminated

Today's Extremes

State Highs State Lows

Community

WunderPhotos

Upload Photos

1,891,818 photos uploaded!

WunderBlog® & News

Nearby

Air Quality

  Air Quality AQ Index Pollutant
Not available.

Snow Depth

Station Depth Elevation

Earthquake Activity

City Distance Mag. Time & Date
Minimum magnitude displayed is 2.5.

Coastal Water Temperatures

Place Temperature

Stations

Nearby Weather Stations

Station Location Temp. Windchill Dew Point Humidity Wind Precip. Elev Updated Type
                   

Watches & Warnings

There are currently no watches in effect.